Time;durP1;ratioP1;P1;durP2;ratioP2;P2;SDS_P1;SDS_P2;PMS_P1;PMS_P2;Temp;Humidity;BMP_temperature;BMP_pressure;BME280_temperature;BME280_humidity;BME280_pressure;Samples;Min_cycle;Max_cycle;Signal;HPM_P1;HPM_P2
2022/07/22 00:00:52;;;;;;;;;26.33;25.00;;;;;22.02;94.88;101230.16;4948051;28;45422;-82
2022/07/22 00:03:18;;;;;;;;;28.00;26.33;;;;;21.95;96.40;101221.28;4950760;28;44934;-82
2022/07/22 00:09:05;;;;;;;;;27.00;25.00;;;;;21.91;95.46;101219.59;4950035;28;45784;-81
2022/07/22 00:11:30;;;;;;;;;26.33;25.00;;;;;21.92;95.53;101227.69;4951283;28;45375;-81
2022/07/22 00:13:56;;;;;;;;;26.00;25.00;;;;;21.92;94.34;101224.09;4949985;28;44784;-81
2022/07/22 00:16:21;;;;;;;;;24.00;23.33;;;;;21.90;94.22;101217.81;4943216;28;44978;-82
2022/07/22 00:18:47;;;;;;;;;23.33;22.00;;;;;21.86;94.95;101210.72;4948702;28;47202;-82
2022/07/22 00:21:12;;;;;;;;;27.33;25.33;;;;;21.85;94.76;101215.22;4952120;28;45382;-82
2022/07/22 00:23:38;;;;;;;;;25.00;24.33;;;;;21.87;94.25;101217.88;4945615;28;45170;-81
2022/07/22 00:26:03;;;;;;;;;27.33;26.67;;;;;21.88;93.59;101222.41;4951455;28;45309;-80
2022/07/22 00:28:29;;;;;;;;;24.67;22.67;;;;;21.87;94.29;101212.47;4945462;28;46819;-81
2022/07/22 00:30:55;;;;;;;;;27.33;21.67;;;;;21.82;94.50;101201.75;4950132;28;45348;-82
2022/07/22 00:33:21;;;;;;;;;27.00;25.33;;;;;21.82;93.39;101209.88;4951721;28;45401;-82
2022/07/22 00:35:46;;;;;;;;;22.67;22.67;;;;;21.77;94.47;101204.59;4945791;28;45472;-82
2022/07/22 00:38:11;;;;;;;;;26.67;22.67;;;;;21.76;93.58;101210.94;4940863;28;46780;-81
2022/07/22 00:40:37;;;;;;;;;27.33;26.67;;;;;21.70;95.00;101202.06;4951144;28;45425;-81
2022/07/22 00:43:02;;;;;;;;;22.67;22.67;;;;;21.61;94.08;101189.63;4950496;28;45497;-82
2022/07/22 00:45:29;;;;;;;;;19.67;19.67;;;;;21.64;94.64;101192.28;4942491;28;45409;-81
2022/07/22 00:47:54;;;;;;;;;21.33;19.67;;;;;21.50;97.01;101172.78;4947865;28;45745;-82
2022/07/22 00:50:20;;;;;;;;;21.67;21.33;;;;;21.53;97.26;101187.16;4948728;28;45467;-81
2022/07/22 00:52:47;;;;;;;;;25.33;24.00;;;;;21.46;97.22;101187.31;4934349;28;45345;-81
2022/07/22 00:55:13;;;;;;;;;23.00;22.00;;;;;21.45;96.94;101193.66;4949822;28;45316;-81
2022/07/22 00:57:38;;;;;;;;;21.67;16.33;;;;;21.40;99.10;101185.63;4965531;28;46213;-82
2022/07/22 01:00:08;;;;;;;;;23.67;18.00;;;;;21.32;100.00;101193.91;4970457;28;45421;-82
2022/07/22 01:02:33;;;;;;;;;21.33;21.33;;;;;21.22;100.00;101183.34;4969811;28;45372;-81
2022/07/22 01:04:59;;;;;;;;;23.33;22.33;;;;;21.17;100.00;101189.75;4951627;28;45381;-80
2022/07/22 01:07:24;;;;;;;;;23.33;22.67;;;;;21.18;99.47;101182.50;4951045;28;46957;-82
2022/07/22 01:09:50;;;;;;;;;26.00;24.33;;;;;21.20;97.90;101188.78;4984658;28;45432;-82
2022/07/22 01:12:15;;;;;;;;;22.00;20.33;;;;;21.23;100.00;101187.81;4951258;28;45451;-80
2022/07/22 01:14:41;;;;;;;;;27.33;24.33;;;;;21.15;98.05;101185.31;4952635;28;45392;-81
2022/07/22 01:17:06;;;;;;;;;23.33;20.00;;;;;21.16;98.73;101182.53;4970553;28;45496;-81
2022/07/22 01:19:32;;;;;;;;;20.00;20.00;;;;;21.18;99.08;101188.81;4952686;28;45397;-81
2022/07/22 01:21:57;;;;;;;;;15.67;15.67;;;;;21.15;97.94;101188.00;4969330;28;45389;-81
2022/07/22 01:24:23;;;;;;;;;19.67;19.67;;;;;21.10;99.45;101179.09;4968933;28;44915;-80
2022/07/22 01:26:48;;;;;;;;;21.67;19.67;;;;;21.10;98.52;101182.69;4950593;28;47000;-81
2022/07/22 01:29:13;;;;;;;;;21.00;20.67;;;;;21.01;99.40;101174.78;4968454;28;45457;-81
2022/07/22 01:31:39;;;;;;;;;20.67;20.67;;;;;21.06;100.00;101190.91;4952601;28;45334;-81
2022/07/22 01:34:04;;;;;;;;;20.67;20.67;;;;;21.04;98.58;101184.63;4970567;28;45440;-81
2022/07/22 01:36:30;;;;;;;;;21.67;19.00;;;;;21.01;100.00;101182.91;4969109;28;45473;-82
2022/07/22 01:38:56;;;;;;;;;25.00;23.00;;;;;20.96;99.06;101179.41;4970968;28;44899;-82
2022/07/22 01:41:22;;;;;;;;;22.33;22.33;;;;;20.97;100.00;101181.19;4969649;28;45352;-82
2022/07/22 01:43:47;;;;;;;;;21.33;21.33;;;;;20.88;100.00;101168.75;4968301;28;45544;-82
2022/07/22 01:46:12;;;;;;;;;22.33;19.67;;;;;20.81;100.00;101169.81;4969011;28;46117;-82
2022/07/22 01:48:38;;;;;;;;;22.00;20.67;;;;;20.87;100.00;101180.50;4969948;28;44771;-82
2022/07/22 01:51:05;;;;;;;;;20.67;19.00;;;;;20.86;99.57;101181.41;4985161;28;45447;-81
2022/07/22 01:53:31;;;;;;;;;23.33;23.33;;;;;20.88;98.98;101178.69;4970090;28;46567;-81
2022/07/22 01:55:56;;;;;;;;;18.33;18.33;;;;;20.86;99.17;101176.00;4969426;28;45577;-82
2022/07/22 01:58:22;;;;;;;;;21.00;19.33;;;;;20.81;99.79;101167.13;4952168;28;45286;-82
2022/07/22 02:00:48;;;;;;;;;17.33;16.67;;;;;20.82;98.44;101162.59;4971232;28;45361;-81
2022/07/22 02:03:13;;;;;;;;;16.00;16.00;;;;;20.80;98.72;101165.31;4954421;28;45656;-82
2022/07/22 02:05:40;;;;;;;;;21.00;19.00;;;;;20.79;100.00;101166.25;4952298;28;45560;-83
2022/07/22 02:08:09;;;;;;;;;23.67;21.00;;;;;20.74;100.00;101162.75;4954106;28;45683;-82
2022/07/22 02:10:35;;;;;;;;;20.00;20.00;;;;;20.71;99.02;101173.66;4970136;28;44791;-82
2022/07/22 02:13:00;;;;;;;;;20.00;19.33;;;;;20.67;99.30;101167.41;4971350;28;45473;-82
2022/07/22 02:15:27;;;;;;;;;19.67;19.67;;;;;20.69;99.38;101176.38;4954994;28;47068;-82
2022/07/22 02:17:54;;;;;;;;;22.33;21.33;;;;;20.64;99.43;101166.56;4971215;28;44787;-82
2022/07/22 02:20:20;;;;;;;;;21.67;18.00;;;;;20.65;100.00;101174.66;4972071;28;44853;-81
2022/07/22 02:22:46;;;;;;;;;22.00;20.67;;;;;20.57;99.88;101158.56;4972211;28;45309;-81
2022/07/22 02:25:12;;;;;;;;;24.00;20.33;;;;;20.58;99.71;101167.53;4955558;28;45347;-81
2022/07/22 02:27:38;;;;;;;;;22.33;18.00;;;;;20.61;99.10;101178.34;4955494;28;45464;-81
2022/07/22 02:30:05;;;;;;;;;18.67;18.67;;;;;20.60;98.90;101165.75;4971686;28;45476;-81
2022/07/22 02:32:31;;;;;;;;;22.00;21.33;;;;;20.64;98.66;101172.84;4970616;28;45434;-81
2022/07/22 02:34:56;;;;;;;;;17.67;17.67;;;;;20.69;98.25;101173.66;4970357;28;45413;-82
2022/07/22 02:37:22;;;;;;;;;22.00;19.67;;;;;20.71;97.94;101168.25;4968814;28;45441;-82
2022/07/22 02:39:51;;;;;;;;;18.00;18.00;;;;;20.63;98.15;101165.69;4954154;28;44779;-81
2022/07/22 02:42:17;;;;;;;;;16.33;16.33;;;;;20.64;97.62;101174.69;4986347;28;45397;-81
2022/07/22 02:44:42;;;;;;;;;20.67;20.67;;;;;20.63;97.61;101171.09;4953370;28;47036;-82
2022/07/22 02:47:07;;;;;;;;;17.67;16.67;;;;;20.63;98.90;101175.63;4955527;28;45424;-82
2022/07/22 02:52:55;;;;;;;;;23.00;20.67;;;;;20.49;99.02;101162.34;4972857;28;44784;-82
2022/07/22 02:55:20;;;;;;;;;15.67;15.67;;;;;20.46;98.64;101163.31;4952951;28;47214;-82
2022/07/22 02:57:46;;;;;;;;;19.00;19.00;;;;;20.47;100.00;101159.66;4952844;28;45530;-82
2022/07/22 03:00:13;;;;;;;;;25.67;23.00;;;;;20.42;100.00;101155.28;4944501;28;45415;-82
2022/07/22 03:02:39;;;;;;;;;24.33;21.33;;;;;20.34;100.00;101152.72;4953573;28;45492;-82
2022/07/22 03:05:05;;;;;;;;;15.33;14.33;;;;;20.33;100.00;101153.66;4951156;28;46960;-82
2022/07/22 03:07:31;;;;;;;;;15.33;15.00;;;;;20.25;100.00;101152.91;4946957;28;45488;-82
2022/07/22 03:09:57;;;;;;;;;17.33;17.33;;;;;20.19;100.00;101146.69;4952200;28;45409;-82
2022/07/22 03:12:24;;;;;;;;;19.33;19.33;;;;;20.15;100.00;101146.78;4955272;28;45449;-82
2022/07/22 03:14:50;;;;;;;;;25.00;20.67;;;;;20.17;100.00;101151.25;4951731;28;46986;-81
2022/07/22 03:17:15;;;;;;;;;17.00;16.00;;;;;20.21;100.00;101151.19;4947593;28;45386;-81
2022/07/22 03:19:41;;;;;;;;;18.00;18.00;;;;;20.22;100.00;101144.84;4955423;28;45840;-81
2022/07/22 03:22:07;;;;;;;;;16.67;16.67;;;;;20.26;100.00;101147.50;4954985;28;45583;-81
2022/07/22 03:24:33;;;;;;;;;19.67;19.33;;;;;20.19;100.00;101141.28;4954674;28;45488;-82
2022/07/22 03:26:58;;;;;;;;;19.33;19.33;;;;;20.21;100.00;101143.97;4955373;28;44799;-82
2022/07/22 03:29:25;;;;;;;;;20.00;17.33;;;;;20.17;100.00;101145.84;4946741;28;45440;-82
2022/07/22 03:31:50;;;;;;;;;17.00;15.67;;;;;20.16;100.00;101151.28;4951804;28;45504;-81
2022/07/22 03:34:16;;;;;;;;;21.33;21.33;;;;;20.13;100.00;101151.34;4952844;28;45386;-81
2022/07/22 03:36:41;;;;;;;;;18.00;16.67;;;;;20.12;100.00;101146.88;4954139;28;45706;-81
2022/07/22 03:39:07;;;;;;;;;17.00;17.00;;;;;20.09;100.00;101146.91;4951520;28;44819;-81
2022/07/22 03:41:32;;;;;;;;;20.67;18.00;;;;;20.11;100.00;101147.78;4953211;28;45326;-81
2022/07/22 03:43:58;;;;;;;;;17.00;17.00;;;;;20.08;100.00;101155.94;4952987;28;45358;-81
2022/07/22 03:46:23;;;;;;;;;24.00;17.67;;;;;20.06;100.00;101157.78;4944916;28;45380;-82
2022/07/22 03:48:49;;;;;;;;;20.33;19.33;;;;;20.02;100.00;101159.66;4950980;28;45346;-83
2022/07/22 03:51:14;;;;;;;;;16.33;16.33;;;;;19.95;100.00;101149.88;4943908;28;45441;-82
2022/07/22 03:53:39;;;;;;;;;15.33;14.00;;;;;19.96;100.00;101155.25;4950366;28;47102;-82
2022/07/22 03:56:05;;;;;;;;;22.33;20.00;;;;;19.95;100.00;101149.88;4953098;28;45399;-83
2022/07/22 03:58:31;;;;;;;;;20.67;18.00;;;;;19.93;100.00;101151.69;4962565;28;45352;-82
2022/07/22 04:00:57;;;;;;;;;16.33;14.67;;;;;19.92;100.00;101156.22;4952886;28;45396;-82
2022/07/22 04:03:22;;;;;;;;;23.33;21.33;;;;;19.92;100.00;101158.03;4952787;28;45502;-80
2022/07/22 04:05:48;;;;;;;;;18.67;17.67;;;;;19.87;100.00;101151.81;4948554;28;45440;-82
2022/07/22 04:08:13;;;;;;;;;17.00;17.00;;;;;19.89;100.00;101158.06;4944689;28;45410;-81
2022/07/22 04:10:39;;;;;;;;;19.67;19.00;;;;;19.87;100.00;101152.69;4952325;28;45290;-82
2022/07/22 04:13:04;;;;;;;;;16.67;16.33;;;;;19.83;100.00;101139.28;4951007;28;45321;-82
2022/07/22 04:15:30;;;;;;;;;15.33;14.67;;;;;19.81;100.00;101146.53;4952045;28;44830;-81
2022/07/22 04:17:55;;;;;;;;;18.00;18.00;;;;;19.81;100.00;101141.13;4951652;28;44764;-82
2022/07/22 04:20:21;;;;;;;;;17.00;15.33;;;;;19.78;100.00;101134.88;4952559;28;45410;-82
2022/07/22 04:22:46;;;;;;;;;13.33;13.33;;;;;19.83;100.00;101147.38;4952419;28;45471;-82
2022/07/22 04:25:12;;;;;;;;;16.67;16.00;;;;;19.82;100.00;101140.22;4951674;28;45321;-82
2022/07/22 04:27:37;;;;;;;;;18.67;17.33;;;;;19.77;100.00;101135.81;4945500;28;45236;-80
2022/07/22 04:30:05;;;;;;;;;17.33;17.33;;;;;19.75;100.00;101143.03;4952233;28;44724;-82
2022/07/22 04:32:30;;;;;;;;;18.33;17.00;;;;;19.81;100.00;101144.72;4944971;28;48249;-82
2022/07/22 04:34:56;;;;;;;;;17.33;16.00;;;;;19.80;100.00;101137.56;4950650;28;44885;-81
2022/07/22 04:37:21;;;;;;;;;15.33;15.33;;;;;19.86;100.00;101136.56;4967343;28;45576;-81
2022/07/22 04:39:47;;;;;;;;;18.00;18.00;;;;;19.92;100.00;101145.41;4948417;28;44875;-82
2022/07/22 04:42:12;;;;;;;;;14.00;14.00;;;;;19.89;100.00;101141.88;4944052;28;47981;-82
2022/07/22 04:44:38;;;;;;;;;22.33;21.00;;;;;19.83;100.00;101136.59;4951230;28;45479;-82
2022/07/22 04:47:03;;;;;;;;;20.67;17.33;;;;;19.81;100.00;101131.22;4951559;28;45535;-81
2022/07/22 04:49:29;;;;;;;;;18.00;16.33;;;;;19.76;100.00;101134.00;4960721;28;45602;-81
2022/07/22 04:51:54;;;;;;;;;14.33;14.00;;;;;19.77;100.00;101134.88;4950534;28;45586;-82
2022/07/22 04:54:20;;;;;;;;;18.00;17.00;;;;;19.75;100.00;101126.84;4960256;28;44891;-81
2022/07/22 04:56:59;;;;;;;;;17.00;17.00;;;;;19.75;100.00;101125.94;4950135;28;45347;-81
2022/07/22 04:59:25;;;;;;;;;17.67;17.00;;;;;19.85;100.00;101126.66;4927959;28;45354;-81
2022/07/22 05:01:53;;;;;;;;;20.67;17.67;;;;;19.92;100.00;101122.94;4950987;28;45715;-82
2022/07/22 05:04:19;;;;;;;;;15.33;15.33;;;;;20.04;100.00;101120.00;4950007;28;45618;-81
2022/07/22 05:06:44;;;;;;;;;17.00;13.67;;;;;20.11;100.00;101124.34;4951291;28;45421;-81
2022/07/22 05:09:10;;;;;;;;;17.00;17.00;;;;;20.19;100.00;101122.41;4951101;28;45401;-81
2022/07/22 05:11:35;;;;;;;;;19.67;18.67;;;;;20.26;100.00;101123.19;4950669;28;46908;-81
2022/07/22 05:14:01;;;;;;;;;22.00;22.00;;;;;20.34;100.00;101117.59;4947481;28;44906;-82
2022/07/22 05:16:26;;;;;;;;;18.00;18.00;;;;;20.46;100.00;101124.56;4951676;28;45640;-82
2022/07/22 05:18:52;;;;;;;;;20.67;20.33;;;;;20.47;99.67;101120.97;4934755;28;45326;-81
2022/07/22 05:21:17;;;;;;;;;18.67;18.00;;;;;20.47;100.00;101121.84;4952156;28;45479;-81
2022/07/22 05:23:42;;;;;;;;;18.00;18.00;;;;;20.49;99.40;101109.19;4951407;28;45383;-82
2022/07/22 05:26:09;;;;;;;;;18.00;17.33;;;;;20.58;99.12;101108.09;4935473;28;45367;-81
2022/07/22 05:28:34;;;;;;;;;19.67;18.67;;;;;20.70;98.32;101120.50;4934332;28;45566;-81
2022/07/22 05:31:00;;;;;;;;;23.67;21.00;;;;;20.79;97.77;101109.50;4934664;28;47226;-81
2022/07/22 05:33:25;;;;;;;;;20.33;19.33;;;;;20.88;96.93;101097.56;4951201;28;44720;-81
2022/07/22 05:35:51;;;;;;;;;18.33;18.33;;;;;21.04;95.71;101106.22;4934314;28;44753;-81
2022/07/22 05:38:18;;;;;;;;;24.00;20.67;;;;;21.18;94.55;101104.06;4950802;28;45449;-82
2022/07/22 05:40:43;;;;;;;;;19.00;18.00;;;;;21.29;93.55;101112.84;4949984;28;45697;-82
2022/07/22 05:43:09;;;;;;;;;20.67;20.67;;;;;21.32;93.25;101115.44;4949908;28;45420;-82
2022/07/22 05:45:34;;;;;;;;;19.00;17.00;;;;;21.35;92.36;101109.09;4933814;28;44861;-81
2022/07/22 05:48:00;;;;;;;;;20.67;18.67;;;;;21.48;91.01;101104.28;4931884;28;45494;-81
2022/07/22 05:50:26;;;;;;;;;19.33;19.33;;;;;21.48;91.01;101101.56;4950833;28;45473;-81
2022/07/22 05:52:52;;;;;;;;;27.00;22.67;;;;;21.53;90.86;101105.03;4951006;28;45346;-82
2022/07/22 05:55:17;;;;;;;;;21.33;18.67;;;;;21.46;90.61;101103.44;4932637;28;44827;-82
2022/07/22 05:57:43;;;;;;;;;20.00;20.00;;;;;21.36;90.34;101098.22;4933670;28;44884;-80
2022/07/22 06:00:09;;;;;;;;;21.33;20.33;;;;;21.33;91.15;101098.28;4932319;28;46881;-81
2022/07/22 06:02:34;;;;;;;;;17.00;17.00;;;;;21.29;91.00;101093.88;4949779;28;45453;-82
2022/07/22 06:05:03;;;;;;;;;22.33;19.00;;;;;21.33;90.87;101101.00;4950742;28;45923;-81
2022/07/22 06:07:28;;;;;;;;;19.67;18.33;;;;;21.29;91.03;101093.88;4935099;28;44959;-83
2022/07/22 06:09:54;;;;;;;;;20.33;18.67;;;;;21.34;90.90;101091.94;4933327;28;47647;-80
2022/07/22 06:12:19;;;;;;;;;18.00;17.00;;;;;21.41;90.35;101102.63;4931805;28;45334;-81
2022/07/22 06:14:46;;;;;;;;;21.00;19.00;;;;;21.48;90.34;101101.56;4932233;28;44876;-81
2022/07/22 06:17:13;;;;;;;;;21.00;19.33;;;;;21.48;90.43;101104.28;4950558;28;45394;-81
2022/07/22 06:19:38;;;;;;;;;21.33;21.33;;;;;21.35;90.55;101101.84;4933876;28;45384;-81
2022/07/22 06:22:04;;;;;;;;;18.00;18.00;;;;;21.32;90.44;101106.44;4950241;28;45450;-81
2022/07/22 06:24:30;;;;;;;;;23.67;23.67;;;;;21.43;90.39;101106.19;4943934;28;45414;-81
2022/07/22 06:26:56;;;;;;;;;19.33;17.33;;;;;21.49;89.96;101092.50;4950173;28;44867;-80
2022/07/22 06:29:21;;;;;;;;;19.33;18.00;;;;;21.69;89.36;101100.13;4931742;28;45481;-81
2022/07/22 06:31:48;;;;;;;;;14.67;14.67;;;;;21.81;89.25;101098.91;4944729;28;45579;-81
2022/07/22 06:34:14;;;;;;;;;18.67;17.00;;;;;21.91;88.03;101095.03;4950253;28;45450;-82
2022/07/22 06:36:39;;;;;;;;;25.33;16.67;;;;;21.96;87.81;101104.81;4945174;28;45611;-83
2022/07/22 06:39:05;;;;;;;;;21.33;20.00;;;;;22.04;87.15;101110.00;4951003;28;45412;-82
2022/07/22 06:41:30;;;;;;;;;15.00;15.00;;;;;22.15;87.08;101105.16;4943704;28;45495;-82
2022/07/22 06:44:46;;;;;;;;;21.67;18.33;;;;;22.20;86.10;101096.94;4949343;28;44768;-83
2022/07/22 06:47:11;;;;;;;;;26.67;24.33;;;;;22.24;85.94;101108.56;4941303;28;45259;-82
2022/07/22 06:49:37;;;;;;;;;19.00;16.67;;;;;22.27;85.79;101114.81;4948775;28;47147;-83
2022/07/22 06:52:03;;;;;;;;;19.00;19.00;;;;;22.41;85.21;101127.97;4950880;28;45351;-83
2022/07/22 06:54:28;;;;;;;;;24.33;21.67;;;;;22.60;83.91;101139.16;4943746;28;45402;-83
2022/07/22 06:56:55;;;;;;;;;18.00;16.33;;;;;22.63;83.76;101114.66;4949815;28;45183;-83
2022/07/22 07:08:46;;;;;;;;;20.33;17.00;;;;;22.92;81.35;101073.06;4914469;28;45716;-83
2022/07/22 07:11:14;;;;;;;;;22.67;20.00;;;;;23.24;80.85;101101.03;4896115;29;46685;-85
2022/07/22 07:14:34;;;;;;;;;20.00;18.33;;;;;23.29;80.48;101074.63;4880181;29;44872;-85
2022/07/22 07:20:23;;;;;;;;;18.67;18.33;;;;;23.09;79.20;101044.56;4863594;29;45417;-84
2022/07/22 07:23:45;;;;;;;;;22.33;20.00;;;;;23.33;80.07;101073.59;4883686;29;45508;-88
2022/07/22 07:26:14;;;;;;;;;20.67;19.67;;;;;23.48;78.82;101071.31;4944737;28;44841;-85
2022/07/22 07:28:49;;;;;;;;;21.33;21.33;;;;;23.55;78.93;101072.84;4976597;28;45541;-88
2022/07/22 07:31:18;;;;;;;;;18.00;17.67;;;;;23.65;78.10;101076.13;4989442;28;45455;-83
2022/07/22 07:33:46;;;;;;;;;18.00;18.00;;;;;23.66;78.31;101054.38;4975732;28;45834;-84
2022/07/22 07:36:12;;;;;;;;;21.67;21.67;;;;;23.98;77.43;101084.97;4995938;28;45370;-84
2022/07/22 07:38:47;;;;;;;;;24.67;24.33;;;;;23.92;76.02;101058.91;4957249;28;45458;-84
2022/07/22 07:41:13;;;;;;;;;26.33;24.00;;;;;23.95;75.44;101064.19;4971703;28;45476;-85
2022/07/22 07:43:48;;;;;;;;;26.33;23.67;;;;;23.95;74.94;101058.75;4974997;28;45559;-87
2022/07/22 07:50:08;;;;;;;;;21.00;21.00;;;;;24.32;75.81;101100.03;4970051;28;45512;-86
2022/07/22 07:53:00;;;;;;;;;19.67;19.67;;;;;24.44;74.44;101106.81;4976350;28;44854;-86
2022/07/22 07:55:26;;;;;;;;;5.33;5.33;;;;;24.21;74.54;101083.22;4977837;28;45389;-84
2022/07/22 07:57:52;;;;;;;;;23.00;22.00;;;;;24.35;73.49;101106.22;4991858;28;44718;-84
2022/07/22 08:00:22;;;;;;;;;27.67;23.67;;;;;24.36;73.95;101091.69;4968739;28;45430;-84
2022/07/22 08:02:48;;;;;;;;;19.67;19.67;;;;;24.46;74.37;101075.91;4989146;28;45356;-84
2022/07/22 08:16:51;;;;;;;;;23.33;21.33;;;;;25.05;71.25;101065.47;4937164;28;44955;-85
2022/07/22 08:19:17;;;;;;;;;23.00;21.33;;;;;25.03;70.44;101060.09;4934044;28;46779;-82
2022/07/22 08:29:52;;;;;;;;;25.00;24.00;;;;;24.88;70.71;101082.47;4823301;29;45557;-81
2022/07/22 08:32:21;;;;;;;;;22.67;22.33;;;;;24.84;70.71;101076.25;4819083;29;45562;-80
2022/07/22 08:34:47;;;;;;;;;26.33;24.00;;;;;24.80;70.80;101068.28;4820225;29;45552;-82
2022/07/22 08:37:12;;;;;;;;;23.00;22.67;;;;;24.96;70.45;101080.31;4820328;29;44777;-80
2022/07/22 08:39:51;;;;;;;;;26.33;24.00;;;;;25.00;70.14;101083.81;4822679;29;45478;-83
2022/07/22 08:45:41;;;;;;;;;24.33;24.33;;;;;24.84;69.82;101019.13;4823795;29;44843;-86
2022/07/22 08:48:33;;;;;;;;;22.67;21.33;;;;;24.64;69.48;101008.19;4823259;29;45453;-82
2022/07/22 08:51:28;;;;;;;;;23.67;22.67;;;;;24.86;69.77;101041.72;4785933;29;45288;-85
2022/07/22 08:54:15;;;;;;;;;21.00;20.00;;;;;24.89;70.18;101041.59;4781062;29;46774;-87
2022/07/22 09:04:46;;;;;;;;;25.00;23.00;;;;;24.86;69.71;100953.78;4896052;29;45538;-83
2022/07/22 09:07:14;;;;;;;;;24.00;22.33;;;;;24.75;69.86;100956.97;4846351;29;45554;-85
2022/07/22 09:12:59;;;;;;;;;24.33;24.00;;;;;24.99;70.06;101014.91;4895291;29;44742;-85
2022/07/22 09:15:30;;;;;;;;;25.00;23.33;;;;;25.17;69.91;101037.75;4881355;29;45379;-83
2022/07/22 09:18:05;;;;;;;;;27.33;26.00;;;;;25.44;69.89;101045.72;4867705;29;45712;-84
2022/07/22 09:20:37;;;;;;;;;25.33;24.33;;;;;25.74;69.13;101066.16;4887221;29;44757;-84
2022/07/22 09:23:10;;;;;;;;;22.00;21.00;;;;;25.87;68.37;101058.31;4875498;29;44848;-83
2022/07/22 09:25:38;;;;;;;;;21.33;21.33;;;;;26.06;67.97;101060.28;4865234;29;45522;-84
2022/07/22 09:28:07;;;;;;;;;21.00;20.33;;;;;26.31;66.73;101063.63;4915876;28;45980;-85
2022/07/22 09:30:35;;;;;;;;;25.67;22.67;;;;;26.42;66.24;101065.88;4937713;28;44858;-84
2022/07/22 09:33:01;;;;;;;;;25.67;24.33;;;;;26.55;66.29;101058.84;4959462;28;44776;-84
2022/07/22 09:35:28;;;;;;;;;23.67;23.00;;;;;26.66;66.18;101043.84;4968805;28;44828;-84
2022/07/22 09:38:38;;;;;;;;;22.00;22.00;;;;;26.71;64.45;101036.34;4975562;28;46823;-84
2022/07/22 09:41:04;;;;;;;;;23.67;20.67;;;;;26.58;64.36;101032.41;4975485;28;45519;-84
2022/07/22 09:43:35;;;;;;;;;26.33;25.33;;;;;26.50;65.30;101036.38;4984094;28;44774;-84
2022/07/22 09:46:01;;;;;;;;;23.67;22.33;;;;;26.44;65.43;101024.84;4957182;28;45184;-84
2022/07/22 09:48:27;;;;;;;;;24.00;23.67;;;;;26.57;65.13;101041.53;4972356;28;46506;-85
2022/07/22 09:50:55;;;;;;;;;24.67;24.00;;;;;26.54;64.95;101042.56;4970585;28;45362;-84
2022/07/22 09:53:28;;;;;;;;;19.00;18.00;;;;;26.59;65.01;101040.53;4974983;28;44791;-85
2022/07/22 09:56:06;;;;;;;;;21.00;20.00;;;;;26.69;64.75;101047.31;4975463;28;44892;-85
2022/07/22 09:58:32;;;;;;;;;23.33;23.00;;;;;26.75;64.56;101040.69;4951170;28;45495;-85
2022/07/22 10:01:06;;;;;;;;;26.00;21.33;;;;;26.92;63.78;101045.31;4973571;28;45336;-85
2022/07/22 10:04:04;;;;;;;;;25.00;22.67;;;;;26.86;64.36;101043.75;4958535;28;44822;-85
2022/07/22 10:06:47;;;;;;;;;;;;;;;;;;;;;
2022/07/22 10:09:31;;;;;;;;;26.33;24.67;;;;;26.73;63.48;101045.31;4976402;28;73908;-84
2022/07/22 10:12:21;;;;;;;;;24.67;24.67;;;;;26.52;63.73;101034.47;4977834;28;44917;-84
2022/07/22 10:15:07;;;;;;;;;24.67;24.67;;;;;26.41;63.73;101044.09;4961827;28;44853;-85
2022/07/22 10:17:43;;;;;;;;;24.67;22.33;;;;;26.24;64.38;101037.63;4989961;28;45396;-84
2022/07/22 10:20:12;;;;;;;;;29.33;27.00;;;;;26.08;65.02;101029.25;4973393;28;45480;-84
2022/07/22 10:22:44;;;;;;;;;27.67;25.67;;;;;25.94;65.64;101032.59;4971111;28;45413;-85
2022/07/22 10:25:13;;;;;;;;;39.33;32.67;;;;;25.75;65.60;101021.63;4961318;28;44962;-85
2022/07/22 10:27:57;;;;;;;;;26.00;23.33;;;;;25.61;66.74;101015.00;4950881;28;45362;-85
2022/07/22 10:30:23;;;;;;;;;24.00;24.00;;;;;25.43;67.42;101019.41;4955637;28;47117;-84
2022/07/22 10:33:03;;;;;;;;;25.67;24.67;;;;;25.31;68.43;101010.84;4955701;28;44821;-84
2022/07/22 10:35:30;;;;;;;;;23.33;22.33;;;;;25.04;68.88;100988.38;4955912;28;45455;-84
2022/07/22 10:37:59;;;;;;;;;24.67;23.00;;;;;25.06;69.80;101010.09;4954521;28;45376;-84
2022/07/22 10:40:45;;;;;;;;;27.33;25.00;;;;;24.96;71.31;100982.38;4955664;28;45498;-84
2022/07/22 10:43:13;;;;;;;;;27.00;23.00;;;;;24.91;73.26;100970.81;4963294;28;45349;-84
2022/07/22 10:45:50;;;;;;;;;29.33;28.00;;;;;24.65;75.09;100933.81;4955668;28;45528;-84
2022/07/22 10:48:23;;;;;;;;;28.00;26.67;;;;;24.70;74.46;100948.09;4956065;28;45370;-84
2022/07/22 10:50:57;;;;;;;;;32.67;31.33;;;;;24.61;76.41;100938.47;4951295;28;47077;-84
2022/07/22 10:53:39;;;;;;;;;32.67;30.33;;;;;24.47;77.20;100903.66;4947123;28;45402;-85
2022/07/22 10:56:24;;;;;;;;;24.33;24.00;;;;;24.55;76.89;100911.56;4935413;28;45442;-85
2022/07/22 10:58:55;;;;;;;;;30.67;29.67;;;;;24.43;76.77;100879.41;4949921;28;45355;-85
2022/07/22 11:01:24;;;;;;;;;5.00;3.33;;;;;24.62;77.66;100890.41;4955076;28;46538;-84
2022/07/22 11:03:53;;;;;;;;;32.33;31.00;;;;;24.69;79.94;100848.44;4923263;28;45415;-84
2022/07/22 11:06:30;;;;;;;;;28.33;27.00;;;;;24.73;80.16;100847.34;4957135;28;44896;-83
2022/07/22 11:09:02;;;;;;;;;25.67;25.67;;;;;24.71;80.05;100839.25;4954578;28;44834;-84
2022/07/22 11:11:41;;;;;;;;;30.67;28.67;;;;;24.57;80.84;100844.38;4955611;28;47972;-85
2022/07/22 11:14:28;;;;;;;;;26.33;25.33;;;;;24.57;79.56;100854.38;4939491;28;45395;-85
2022/07/22 11:17:14;;;;;;;;;27.33;27.33;;;;;24.64;80.47;100845.91;4957124;28;44833;-86
2022/07/22 11:19:40;;;;;;;;;32.33;29.67;;;;;24.64;80.26;100834.13;4955544;28;45283;-84
2022/07/22 11:22:08;;;;;;;;;30.67;28.67;;;;;24.59;79.54;100838.91;4936826;28;45440;-84
2022/07/22 11:24:34;;;;;;;;;27.67;27.67;;;;;24.44;81.48;100832.22;4939548;28;45486;-85
2022/07/22 11:27:01;;;;;;;;;27.00;26.00;;;;;24.39;80.93;100864.16;4937944;28;45487;-84
2022/07/22 11:29:33;;;;;;;;;29.67;29.00;;;;;24.35;80.37;100877.88;4953709;28;45644;-84
2022/07/22 11:32:00;;;;;;;;;29.00;29.00;;;;;24.44;80.38;100859.41;4954972;28;45427;-85
2022/07/22 11:34:27;;;;;;;;;33.67;29.00;;;;;24.52;80.88;100839.16;4936658;28;44825;-84
2022/07/22 11:36:54;;;;;;;;;31.33;30.33;;;;;24.65;81.99;100828.63;4954324;28;44731;-84
2022/07/22 11:39:29;;;;;;;;;31.33;30.00;;;;;24.68;82.02;100836.66;4954364;28;45313;-84
2022/07/22 11:41:59;;;;;;;;;29.00;28.00;;;;;24.74;80.28;100850.00;4939956;28;47020;-84
2022/07/22 11:44:28;;;;;;;;;32.67;30.00;;;;;24.79;79.27;100870.69;4957278;28;44844;-85
2022/07/22 11:46:58;;;;;;;;;32.00;30.00;;;;;24.81;79.41;100885.09;4940054;28;44838;-86
2022/07/22 11:49:25;;;;;;;;;31.33;29.33;;;;;24.85;79.82;100897.63;4925916;28;45527;-85
2022/07/22 11:51:55;;;;;;;;;30.00;29.67;;;;;24.90;78.78;100917.31;4963597;28;46808;-84
2022/07/22 11:54:25;;;;;;;;;34.67;32.33;;;;;24.86;78.82;100932.88;4956132;28;44805;-85
2022/07/22 11:56:56;;;;;;;;;31.00;28.67;;;;;24.94;78.08;100948.91;4952288;28;45458;-84
2022/07/22 11:59:21;;;;;;;;;27.67;26.67;;;;;25.06;77.53;100955.66;4956102;28;44832;-85
2022/07/22 12:01:48;;;;;;;;;31.33;30.00;;;;;25.15;76.79;100960.72;4952319;28;47972;-85
2022/07/22 12:04:18;;;;;;;;;29.67;28.33;;;;;25.37;76.78;100979.75;4938207;28;45504;-85
2022/07/22 12:06:46;;;;;;;;;30.67;30.33;;;;;25.41;77.11;100977.75;4954589;28;45439;-85
2022/07/22 12:09:24;;;;;;;;;31.67;28.00;;;;;25.47;76.71;100988.38;4930265;28;44854;-85
2022/07/22 12:11:58;;;;;;;;;28.33;25.33;;;;;25.57;75.22;100994.31;4938323;28;48051;-86
2022/07/22 12:14:29;;;;;;;;;34.00;31.00;;;;;25.66;75.19;100970.28;4935784;28;45462;-86